Time,TemperatureF,DewpointF,PressureIn,WindDirection,WindDirectionDegrees,WindSpeedMPH,WindSpeedGustMPH,Humidity,HourlyPrecipIn,Conditions,Clouds,dailyrainin,SoftwareType,DateUTC
2013-05-31 00:01:00,39.0,33.0,30.43,WSW,247,9.0,18.0,79,0.00,,,0.00,,2013-05-31 07:01:00,
2013-05-31 00:11:00,39.0,33.0,30.43,WSW,250,8.0,19.0,80,0.00,,,0.00,,2013-05-31 07:11:00,
2013-05-31 00:21:00,39.0,33.0,30.43,WSW,250,8.0,19.0,80,0.00,,,0.00,,2013-05-31 07:21:00,
2013-05-31 00:31:00,39.0,34.0,30.41,WSW,251,7.0,15.0,83,0.00,,,0.00,,2013-05-31 07:31:00,
2013-05-31 00:41:00,39.0,34.0,30.41,WSW,251,7.0,15.0,83,0.00,,,0.00,,2013-05-31 07:41:00,
2013-05-31 00:52:00,39.0,35.0,30.41,West,262,8.0,18.0,86,0.00,,,0.00,,2013-05-31 07:52:00,
2013-05-31 01:01:00,39.0,36.0,30.43,West,267,8.0,16.0,88,0.00,,,0.00,,2013-05-31 08:01:00,
2013-05-31 01:11:00,39.0,36.0,30.43,West,267,8.0,16.0,88,0.00,,,0.00,,2013-05-31 08:11:00,
2013-05-31 01:21:00,39.0,36.0,30.42,West,265,8.0,17.0,89,0.00,,,0.00,,2013-05-31 08:21:00,
2013-05-31 01:31:00,38.0,35.0,30.42,West,266,8.0,17.0,90,0.00,,,0.00,,2013-05-31 08:31:00,
2013-05-31 01:41:00,38.0,35.0,30.42,West,266,8.0,17.0,90,0.00,,,0.00,,2013-05-31 08:41:00,
2013-05-31 01:51:00,38.0,36.0,30.41,WSW,252,8.0,14.0,91,0.00,,,0.00,,2013-05-31 08:51:00,
2013-05-31 02:01:00,38.0,36.0,30.41,West,264,8.0,13.0,92,0.00,,,0.00,,2013-05-31 09:01:00,
2013-05-31 02:11:00,38.0,36.0,30.41,West,264,8.0,13.0,92,0.00,,,0.00,,2013-05-31 09:11:00,
2013-05-31 02:21:00,38.0,36.0,30.40,WSW,243,7.0,12.0,92,0.00,,,0.00,,2013-05-31 09:21:00,
2013-05-31 02:32:00,38.0,36.0,30.42,WSW,249,6.0,13.0,93,0.00,,,0.00,,2013-05-31 09:32:00,
2013-05-31 02:42:00,38.0,36.0,30.42,WSW,249,6.0,13.0,93,0.00,,,0.00,,2013-05-31 09:42:00,
2013-05-31 02:53:00,37.0,35.0,30.41,West,274,8.0,15.0,93,0.00,,,0.00,,2013-05-31 09:53:00,
2013-05-31 03:02:00,37.0,35.0,30.41,West,265,9.0,15.0,94,0.00,,,0.00,,2013-05-31 10:02:00,
2013-05-31 03:12:00,37.0,35.0,30.41,West,269,7.0,12.0,94,0.00,,,0.00,,2013-05-31 10:12:00,
2013-05-31 03:22:00,37.0,35.0,30.41,West,269,7.0,12.0,94,0.00,,,0.00,,2013-05-31 10:22:00,
2013-05-31 03:32:00,37.0,35.0,30.41,West,274,7.0,12.0,93,0.00,,,0.00,,2013-05-31 10:32:00,
2013-05-31 03:42:00,37.0,35.0,30.41,West,274,7.0,12.0,93,0.00,,,0.00,,2013-05-31 10:42:00,
2013-05-31 03:52:00,37.0,35.0,30.41,West,261,7.0,12.0,91,0.00,,,0.00,,2013-05-31 10:52:00,
2013-05-31 04:01:00,38.0,35.0,30.40,West,269,6.0,12.0,89,0.00,,,0.00,,2013-05-31 11:01:00,
2013-05-31 04:11:00,38.0,35.0,30.40,West,269,6.0,12.0,89,0.00,,,0.00,,2013-05-31 11:11:00,
2013-05-31 04:22:00,38.0,34.0,30.40,West,274,7.0,11.0,85,0.00,,,0.00,,2013-05-31 11:22:00,
2013-05-31 04:32:00,38.0,33.0,30.40,West,277,8.0,12.0,83,0.00,,,0.00,,2013-05-31 11:32:00,
2013-05-31 04:41:00,38.0,33.0,30.40,West,277,8.0,12.0,83,0.00,,,0.00,,2013-05-31 11:41:00,
2013-05-31 04:52:00,38.0,32.0,30.40,WNW,289,7.0,13.0,80,0.00,,,0.00,,2013-05-31 11:52:00,
2013-05-31 05:01:00,38.0,31.0,30.41,NW,307,5.0,12.0,77,0.00,,,0.00,,2013-05-31 12:01:00,
2013-05-31 05:11:00,38.0,31.0,30.41,NW,307,5.0,12.0,77,0.00,,,0.00,,2013-05-31 12:11:00,
2013-05-31 05:21:00,39.0,31.0,30.41,WNW,298,7.0,13.0,72,0.00,,,0.00,,2013-05-31 12:21:00,
2013-05-31 05:31:00,39.0,31.0,30.42,WNW,294,7.0,12.0,73,0.00,,,0.00,,2013-05-31 12:31:00,
2013-05-31 05:41:00,39.0,31.0,30.42,WNW,294,7.0,12.0,73,0.00,,,0.00,,2013-05-31 12:41:00,
2013-05-31 05:52:00,39.0,30.0,30.42,NW,305,7.0,16.0,70,0.00,,,0.00,,2013-05-31 12:52:00,
2013-05-31 06:01:00,38.0,31.0,30.43,WNW,301,7.0,12.0,75,0.00,,,0.00,,2013-05-31 13:01:00,
2013-05-31 06:11:00,38.0,31.0,30.43,WNW,301,7.0,12.0,75,0.00,,,0.00,,2013-05-31 13:11:00,
2013-05-31 06:21:00,38.0,30.0,30.42,NNW,328,8.0,15.0,72,0.00,,,0.00,,2013-05-31 13:21:00,
2013-05-31 06:32:00,38.0,31.0,30.44,NNW,338,9.0,13.0,76,0.00,,,0.00,,2013-05-31 13:32:00,
2013-05-31 06:42:00,38.0,31.0,30.44,NNW,338,9.0,13.0,76,0.00,,,0.00,,2013-05-31 13:42:00,
2013-05-31 06:52:00,39.0,29.0,30.44,NNW,329,7.0,17.0,68,0.00,,,0.00,,2013-05-31 13:52:00,
2013-05-31 07:02:00,39.0,29.0,30.45,NNW,333,9.0,17.0,67,0.00,,,0.00,,2013-05-31 14:02:00,
2013-05-31 07:11:00,39.0,29.0,30.45,NNW,333,9.0,17.0,67,0.00,,,0.00,,2013-05-31 14:11:00,
2013-05-31 07:21:00,39.0,29.0,30.45,NNW,332,9.0,16.0,67,0.00,,,0.00,,2013-05-31 14:21:00,
2013-05-31 07:31:00,40.0,28.0,30.45,NNW,344,14.0,23.0,62,0.00,,,0.00,,2013-05-31 14:31:00,
2013-05-31 07:41:00,40.0,28.0,30.45,NNW,344,14.0,23.0,62,0.00,,,0.00,,2013-05-31 14:41:00,
2013-05-31 07:52:00,40.0,28.0,30.46,NNW,344,9.0,17.0,61,0.00,,,0.00,,2013-05-31 14:52:00,
2013-05-31 08:01:00,41.0,29.0,30.47,NNW,337,8.0,18.0,62,0.00,,,0.00,,2013-05-31 15:01:00,
2013-05-31 08:11:00,41.0,29.0,30.47,NNW,337,8.0,18.0,62,0.00,,,0.00,,2013-05-31 15:11:00,
2013-05-31 08:21:00,41.0,28.0,30.47,NNW,336,8.0,17.0,60,0.00,,,0.00,,2013-05-31 15:21:00,
2013-05-31 08:32:00,42.0,29.0,30.47,NNW,348,8.0,16.0,59,0.00,,,0.00,,2013-05-31 15:32:00,
2013-05-31 08:42:00,42.0,29.0,30.47,NNW,348,8.0,16.0,59,0.00,,,0.00,,2013-05-31 15:42:00,
2013-05-31 08:53:00,43.0,30.0,30.46,NNW,343,8.0,15.0,60,0.00,,,0.00,,2013-05-31 15:53:00,
2013-05-31 09:03:00,43.0,29.0,30.46,North,351,7.0,16.0,57,0.00,,,0.00,,2013-05-31 16:03:00,
2013-05-31 09:12:00,44.0,30.0,30.47,NNW,337,7.0,13.0,57,0.00,,,0.00,,2013-05-31 16:12:00,
2013-05-31 09:22:00,44.0,30.0,30.47,NNW,337,7.0,13.0,57,0.00,,,0.00,,2013-05-31 16:22:00,
2013-05-31 09:33:00,46.0,30.0,30.49,North,360,5.0,12.0,54,0.00,,,0.00,,2013-05-31 16:33:00,
2013-05-31 09:41:00,46.0,30.0,30.49,North,360,5.0,12.0,54,0.00,,,0.00,,2013-05-31 16:41:00,
2013-05-31 09:52:00,47.0,33.0,30.50,North,356,5.0,11.0,57,0.00,,,0.00,,2013-05-31 16:52:00,
2013-05-31 10:02:00,47.0,31.0,30.49,North,353,6.0,12.0,53,0.00,,,0.00,,2013-05-31 17:02:00,
2013-05-31 10:12:00,47.0,31.0,30.49,North,353,6.0,12.0,53,0.00,,,0.00,,2013-05-31 17:12:00,
2013-05-31 10:22:00,48.0,33.0,30.50,NW,313,3.0,12.0,55,0.00,,,0.00,,2013-05-31 17:22:00,
2013-05-31 10:31:00,48.0,32.0,30.50,NW,318,4.0,12.0,53,0.00,,,0.00,,2013-05-31 17:31:00,
2013-05-31 10:42:00,48.0,32.0,30.50,NW,318,4.0,12.0,53,0.00,,,0.00,,2013-05-31 17:42:00,
2013-05-31 10:52:00,49.0,32.0,30.51,North,354,5.0,11.0,51,0.00,,,0.00,,2013-05-31 17:52:00,
2013-05-31 11:01:00,49.0,31.0,30.51,WNW,291,5.0,9.0,49,0.00,,,0.00,,2013-05-31 18:01:00,
2013-05-31 11:11:00,49.0,31.0,30.51,WNW,291,5.0,9.0,49,0.00,,,0.00,,2013-05-31 18:11:00,
2013-05-31 11:21:00,50.0,31.0,30.52,NNW,331,2.0,12.0,47,0.00,,,0.00,,2013-05-31 18:21:00,
2013-05-31 11:31:00,50.0,29.0,30.52,NNW,341,8.0,13.0,45,0.00,,,0.00,,2013-05-31 18:31:00,
2013-05-31 11:41:00,50.0,29.0,30.52,NNW,341,8.0,13.0,45,0.00,,,0.00,,2013-05-31 18:41:00,
2013-05-31 11:52:00,50.0,31.0,30.52,West,278,8.0,13.0,48,0.00,,,0.00,,2013-05-31 18:52:00,
2013-05-31 12:01:00,51.0,33.0,30.52,NNW,341,4.0,12.0,49,0.00,,,0.00,,2013-05-31 19:01:00,
2013-05-31 12:11:00,51.0,33.0,30.52,NNW,341,4.0,12.0,49,0.00,,,0.00,,2013-05-31 19:11:00,
2013-05-31 12:22:00,51.0,28.0,30.52,NW,321,7.0,13.0,41,0.00,,,0.00,,2013-05-31 19:22:00,
2013-05-31 12:31:00,53.0,28.0,30.53,WNW,288,9.0,14.0,38,0.00,,,0.00,,2013-05-31 19:31:00,
2013-05-31 12:41:00,52.0,27.0,30.53,West,280,7.0,13.0,37,0.00,,,0.00,,2013-05-31 19:41:00,
2013-05-31 12:52:00,52.0,27.0,30.53,West,280,7.0,13.0,37,0.00,,,0.00,,2013-05-31 19:52:00,
2013-05-31 13:01:00,52.0,27.0,30.53,WNW,300,4.0,16.0,38,0.00,,,0.00,,2013-05-31 20:01:00,
2013-05-31 13:11:00,52.0,27.0,30.53,WNW,300,4.0,16.0,38,0.00,,,0.00,,2013-05-31 20:11:00,
2013-05-31 13:22:00,52.0,27.0,30.53,West,269,10.0,18.0,38,0.00,,,0.00,,2013-05-31 20:22:00,
2013-05-31 13:31:00,53.0,28.0,30.53,WNW,296,8.0,17.0,38,0.00,,,0.00,,2013-05-31 20:31:00,
2013-05-31 13:41:00,53.0,28.0,30.53,WNW,296,8.0,17.0,38,0.00,,,0.00,,2013-05-31 20:41:00,
2013-05-31 13:52:00,53.0,27.0,30.53,West,276,4.0,12.0,37,0.00,,,0.00,,2013-05-31 20:52:00,
2013-05-31 14:01:00,54.0,28.0,30.52,West,271,4.0,15.0,37,0.00,,,0.00,,2013-05-31 21:01:00,
2013-05-31 14:11:00,54.0,28.0,30.52,West,271,4.0,15.0,37,0.00,,,0.00,,2013-05-31 21:11:00,
2013-05-31 14:22:00,55.0,29.0,30.52,West,279,8.0,14.0,36,0.00,,,0.00,,2013-05-31 21:22:00,
2013-05-31 14:32:00,56.0,29.0,30.53,WNW,286,6.0,13.0,35,0.00,,,0.00,,2013-05-31 21:32:00,
2013-05-31 14:42:00,54.0,28.0,30.54,WSW,248,3.0,14.0,36,0.00,,,0.00,,2013-05-31 21:42:00,
2013-05-31 14:54:00,54.0,28.0,30.54,WSW,248,3.0,14.0,36,0.00,,,0.00,,2013-05-31 21:54:00,
2013-05-31 15:02:00,54.0,24.0,30.54,NW,306,7.0,15.0,31,0.00,,,0.00,,2013-05-31 22:02:00,
2013-05-31 15:12:00,54.0,24.0,30.54,NW,306,7.0,15.0,31,0.00,,,0.00,,2013-05-31 22:12:00,
2013-05-31 15:22:00,54.0,25.0,30.54,West,270,10.0,16.0,32,0.00,,,0.00,,2013-05-31 22:22:00,
2013-05-31 15:33:00,55.0,26.0,30.53,West,281,5.0,16.0,32,0.00,,,0.00,,2013-05-31 22:33:00,
2013-05-31 15:41:00,56.0,26.0,30.53,WNW,292,5.0,16.0,31,0.00,,,0.00,,2013-05-31 22:41:00,
2013-05-31 15:52:00,56.0,26.0,30.53,WNW,292,5.0,16.0,31,0.00,,,0.00,,2013-05-31 22:52:00,
2013-05-31 16:01:00,56.0,29.0,30.53,West,262,7.0,15.0,35,0.00,,,0.00,,2013-05-31 23:01:00,
2013-05-31 16:12:00,56.0,29.0,30.53,West,262,7.0,15.0,35,0.00,,,0.00,,2013-05-31 23:12:00,
2013-05-31 16:21:00,57.0,29.0,30.53,NW,307,6.0,17.0,34,0.00,,,0.00,,2013-05-31 23:21:00,
2013-05-31 16:32:00,56.0,29.0,30.52,WNW,287,6.0,15.0,36,0.00,,,0.00,,2013-05-31 23:32:00,
2013-05-31 16:42:00,56.0,28.0,30.53,WNW,302,5.0,13.0,34,0.00,,,0.00,,2013-05-31 23:42:00,
2013-05-31 16:52:00,56.0,28.0,30.53,WNW,302,5.0,13.0,34,0.00,,,0.00,,2013-05-31 23:52:00,
2013-05-31 17:01:00,56.0,30.0,30.52,West,264,8.0,16.0,37,0.00,,,0.00,,2013-06-01 00:01:00,
2013-05-31 17:11:00,55.0,30.0,30.52,West,280,10.0,15.0,38,0.00,,,0.00,,2013-06-01 00:11:00,
2013-05-31 17:21:00,55.0,30.0,30.52,West,280,10.0,15.0,38,0.00,,,0.00,,2013-06-01 00:21:00,
2013-05-31 17:31:00,56.0,30.0,30.52,West,262,6.0,16.0,37,0.00,,,0.00,,2013-06-01 00:31:00,
2013-05-31 17:42:00,56.0,30.0,30.52,WNW,287,8.0,15.0,37,0.00,,,0.00,,2013-06-01 00:42:00,
2013-05-31 17:52:00,56.0,30.0,30.52,WNW,287,8.0,15.0,37,0.00,,,0.00,,2013-06-01 00:52:00,
2013-05-31 18:01:00,55.0,30.0,30.52,WNW,282,7.0,15.0,38,0.00,,,0.00,,2013-06-01 01:01:00,
2013-05-31 18:11:00,55.0,31.0,30.52,West,263,3.0,15.0,40,0.00,,,0.00,,2013-06-01 01:11:00,
2013-05-31 18:21:00,55.0,31.0,30.52,West,263,3.0,15.0,40,0.00,,,0.00,,2013-06-01 01:21:00,
2013-05-31 18:31:00,55.0,29.0,30.51,NW,312,6.0,11.0,37,0.00,,,0.00,,2013-06-01 01:31:00,
2013-05-31 18:41:00,55.0,26.0,30.53,NNW,334,6.0,14.0,33,0.00,,,0.00,,2013-06-01 01:41:00,
2013-05-31 18:52:00,55.0,26.0,30.53,NNW,334,6.0,14.0,33,0.00,,,0.00,,2013-06-01 01:52:00,
2013-05-31 19:01:00,55.0,28.0,30.53,NW,307,5.0,11.0,35,0.00,,,0.00,,2013-06-01 02:01:00,
2013-05-31 19:11:00,53.0,25.0,30.53,NNW,345,7.0,12.0,34,0.00,,,0.00,,2013-06-01 02:11:00,
2013-05-31 19:21:00,53.0,25.0,30.53,NNW,345,7.0,12.0,34,0.00,,,0.00,,2013-06-01 02:21:00,
2013-05-31 19:31:00,51.0,24.0,30.53,NNW,340,8.0,13.0,34,0.00,,,0.00,,2013-06-01 02:31:00,
2013-05-31 19:41:00,49.0,23.0,30.53,NNW,340,8.0,13.0,35,0.00,,,0.00,,2013-06-01 02:41:00,
2013-05-31 19:51:00,49.0,23.0,30.53,NNW,340,8.0,13.0,35,0.00,,,0.00,,2013-06-01 02:51:00,
2013-05-31 20:01:00,48.0,22.0,30.53,NNW,344,8.0,13.0,36,0.00,,,0.00,,2013-06-01 03:01:00,
2013-05-31 20:11:00,48.0,21.0,30.53,NNW,343,9.0,13.0,34,0.00,,,0.00,,2013-06-01 03:11:00,
2013-05-31 20:21:00,48.0,21.0,30.53,NNW,343,9.0,13.0,34,0.00,,,0.00,,2013-06-01 03:21:00,
2013-05-31 20:33:00,47.0,19.0,30.51,North,350,8.0,11.0,33,0.00,,,0.00,,2013-06-01 03:33:00,
2013-05-31 20:43:00,48.0,21.0,30.52,NNW,346,8.0,11.0,34,0.00,,,0.00,,2013-06-01 03:43:00,
2013-05-31 20:53:00,48.0,21.0,30.52,NNW,346,8.0,11.0,34,0.00,,,0.00,,2013-06-01 03:53:00,
2013-05-31 21:02:00,48.0,22.0,30.53,NNW,342,7.0,11.0,36,0.00,,,0.00,,2013-06-01 04:02:00,
2013-05-31 21:12:00,48.0,22.0,30.53,NNW,333,8.0,12.0,35,0.00,,,0.00,,2013-06-01 04:12:00,
2013-05-31 21:22:00,48.0,22.0,30.53,NNW,333,8.0,12.0,35,0.00,,,0.00,,2013-06-01 04:22:00,
2013-05-31 21:33:00,48.0,20.0,30.54,NNW,335,8.0,13.0,33,0.00,,,0.00,,2013-06-01 04:33:00,
2013-05-31 21:42:00,48.0,21.0,30.54,NNW,339,7.0,17.0,34,0.00,,,0.00,,2013-06-01 04:42:00,
2013-05-31 21:53:00,48.0,21.0,30.54,NNW,339,7.0,17.0,34,0.00,,,0.00,,2013-06-01 04:53:00,
2013-05-31 22:02:00,48.0,22.0,30.54,North,349,6.0,12.0,36,0.00,,,0.00,,2013-06-01 05:02:00,
2013-05-31 22:12:00,48.0,22.0,30.54,North,349,6.0,12.0,36,0.00,,,0.00,,2013-06-01 05:12:00,
2013-05-31 22:22:00,48.0,21.0,30.54,North,358,9.0,13.0,34,0.00,,,0.00,,2013-06-01 05:22:00,
2013-05-31 22:32:00,48.0,22.0,30.54,North,353,8.0,11.0,36,0.00,,,0.00,,2013-06-01 05:32:00,
2013-05-31 22:42:00,47.0,21.0,30.54,NNE,19,6.0,9.0,36,0.00,,,0.00,,2013-06-01 05:42:00,
2013-05-31 22:52:00,47.0,21.0,30.54,NNE,19,6.0,9.0,36,0.00,,,0.00,,2013-06-01 05:52:00,
2013-05-31 23:01:00,47.0,21.0,30.54,NNE,21,5.0,9.0,36,0.00,,,0.00,,2013-06-01 06:01:00,
2013-05-31 23:12:00,48.0,22.0,30.54,North,353,8.0,11.0,36,0.00,,,0.00,,2013-06-01 06:12:00,
2013-05-31 23:22:00,48.0,22.0,30.54,North,353,8.0,11.0,36,0.00,,,0.00,,2013-06-01 06:22:00,
2013-05-31 23:32:00,47.0,16.0,30.55,East,79,6.0,10.0,28,0.00,,,0.00,,2013-06-01 06:32:00,
2013-05-31 23:41:00,46.0,21.0,30.55,East,95,2.0,14.0,37,0.00,,,0.00,,2013-06-01 06:41:00,
2013-05-31 23:52:00,46.0,21.0,30.55,East,95,2.0,14.0,37,0.00,,,0.00,,2013-06-01 06:52:00,